Time;durP1;ratioP1;P1;durP2;ratioP2;P2;SDS_P1;SDS_P2;PMS_P1;PMS_P2;Temp;Humidity;BMP_temperature;BMP_pressure;BME280_temperature;BME280_humidity;BME280_pressure;Samples;Min_cycle;Max_cycle;Signal;HPM_P1;HPM_P2
2022/03/31 00:00:20;;;;;;;11.20;3.95;;;;;;;13.23;50.57;63364.78;5053558;28;20208;-78
2022/03/31 00:02:47;;;;;;;11.00;3.40;;;;;;;13.01;50.97;63339.38;5065011;28;20279;-77
2022/03/31 00:05:14;;;;;;;14.68;4.18;;;;;;;13.07;50.65;63346.13;5065187;28;20197;-78
2022/03/31 00:07:57;;;;;;;7.00;3.65;;;;;;;13.03;51.09;63344.53;5061590;28;20233;-80
2022/03/31 00:10:26;;;;;;;11.30;4.53;;;;;;;13.07;51.15;63348.69;5064243;28;20216;-77
2022/03/31 00:12:56;;;;;;;13.57;4.30;;;;;;;12.96;51.23;63332.13;5064002;28;20598;-77
2022/03/31 00:15:26;;;;;;;13.02;5.10;;;;;;;13.04;51.06;63339.94;5064730;28;20199;-77
2022/03/31 00:17:53;;;;;;;14.60;4.35;;;;;;;13.07;51.07;63351.25;5061453;28;20231;-78
2022/03/31 00:20:20;;;;;;;16.95;4.47;;;;;;;12.87;51.92;63322.81;5065166;28;20200;-78
2022/03/31 00:22:47;;;;;;;10.43;4.32;;;;;;;12.89;52.68;63326.94;5063156;28;20278;-78
2022/03/31 00:25:14;;;;;;;18.42;5.80;;;;;;;12.84;52.72;63321.75;5064652;28;20437;-78
2022/03/31 00:27:42;;;;;;;15.73;4.43;;;;;;;12.95;52.14;63336.22;5063211;28;20218;-78
2022/03/31 00:30:11;;;;;;;12.02;4.45;;;;;;;12.87;52.18;63325.38;5065867;28;20421;-77
2022/03/31 00:32:40;;;;;;;21.70;5.07;;;;;;;12.96;51.84;63331.63;5062766;28;20228;-78
2022/03/31 00:35:08;;;;;;;10.35;4.28;;;;;;;12.88;52.29;63323.84;5063789;28;20206;-78
2022/03/31 00:37:35;;;;;;;11.70;4.68;;;;;;;12.88;52.45;63326.41;5064685;28;20217;-78
2022/03/31 00:40:02;;;;;;;7.35;3.92;;;;;;;12.82;52.14;63317.13;5065025;28;20268;-78
2022/03/31 00:42:29;;;;;;;10.35;4.18;;;;;;;12.70;52.45;63310.31;5064210;28;20236;-78
2022/03/31 00:44:56;;;;;;;9.73;3.95;;;;;;;12.75;52.17;63313.44;5058870;28;20215;-77
2022/03/31 00:47:23;;;;;;;9.50;3.65;;;;;;;12.78;52.15;63318.59;5062401;28;20221;-79
2022/03/31 00:49:51;;;;;;;8.80;3.97;;;;;;;12.85;52.20;63327.88;5065245;28;20235;-78
2022/03/31 00:52:18;;;;;;;20.67;3.55;;;;;;;12.94;52.42;63335.19;5062878;28;20221;-77
2022/03/31 00:54:45;;;;;;;12.13;3.38;;;;;;;13.03;52.50;63341.47;5060885;28;20221;-78
2022/03/31 00:57:14;;;;;;;12.45;3.95;;;;;;;13.05;51.98;63349.16;5064051;28;20221;-77
2022/03/31 00:59:40;;;;;;;12.77;3.42;;;;;;;13.13;51.71;63352.34;5065167;28;20197;-77
2022/03/31 01:02:08;;;;;;;9.88;3.80;;;;;;;13.18;51.80;63360.09;5059762;28;20253;-77
2022/03/31 01:04:35;;;;;;;7.68;3.53;;;;;;;13.27;51.68;63366.38;5063441;28;20233;-77
2022/03/31 01:07:04;;;;;;;9.70;3.42;;;;;;;13.21;51.86;63368.34;5064522;28;20217;-78
2022/03/31 01:09:32;;;;;;;11.25;4.28;;;;;;;13.19;51.98;63358.59;5065124;28;20193;-78
2022/03/31 01:12:02;;;;;;;20.85;5.00;;;;;;;13.19;52.61;63361.13;5059557;28;20217;-77
2022/03/31 01:14:30;;;;;;;16.10;4.10;;;;;;;13.28;52.78;63369.97;5048530;28;20221;-78
2022/03/31 01:16:57;;;;;;;13.80;4.65;;;;;;;13.36;53.00;63373.66;5063686;28;20217;-78
2022/03/31 01:19:24;;;;;;;10.50;4.00;;;;;;;13.35;53.16;63377.75;5063502;28;20193;-77
2022/03/31 01:21:51;;;;;;;12.90;3.75;;;;;;;13.35;53.46;63374.66;5061302;28;20233;-78
2022/03/31 01:24:19;;;;;;;13.10;3.75;;;;;;;13.39;53.44;63378.81;5062299;28;20205;-77
2022/03/31 01:26:46;;;;;;;15.30;4.43;;;;;;;13.49;53.66;63389.72;5064422;28;20276;-78
2022/03/31 01:29:13;;;;;;;17.17;4.43;;;;;;;13.55;53.63;63395.41;5062490;28;20244;-78
2022/03/31 01:31:40;;;;;;;10.57;3.53;;;;;;;13.46;54.56;63386.09;5062055;28;20220;-77
2022/03/31 01:34:07;;;;;;;15.40;3.85;;;;;;;13.60;54.76;63405.72;5064521;28;20194;-77
2022/03/31 01:36:34;;;;;;;12.55;3.60;;;;;;;13.64;54.43;63404.75;5066478;28;20197;-77
2022/03/31 01:39:01;;;;;;;13.18;3.70;;;;;;;13.62;54.57;63397.56;5063183;28;20201;-77
2022/03/31 01:41:29;;;;;;;13.60;3.88;;;;;;;13.71;54.66;63417.13;5066834;28;20193;-78
2022/03/31 01:43:56;;;;;;;13.93;4.30;;;;;;;13.76;55.09;63422.84;5063004;28;20229;-78
2022/03/31 01:46:23;;;;;;;15.65;3.40;;;;;;;13.83;54.70;63424.47;5062108;28;20208;-77
2022/03/31 01:48:51;;;;;;;16.52;4.93;;;;;;;13.89;54.94;63438.91;5061694;28;20201;-78
2022/03/31 01:51:18;;;;;;;16.52;4.15;;;;;;;13.90;54.54;63432.25;5064192;28;20483;-78
2022/03/31 01:53:45;;;;;;;13.45;3.55;;;;;;;13.93;54.00;63429.22;5063687;28;20213;-78
2022/03/31 01:56:12;;;;;;;11.40;4.07;;;;;;;14.01;53.62;63443.16;5057133;28;20413;-78
2022/03/31 01:58:40;;;;;;;20.13;4.35;;;;;;;13.96;54.14;63434.91;5064007;28;20217;-78
2022/03/31 02:01:07;;;;;;;15.38;4.28;;;;;;;14.00;54.89;63442.13;5067383;28;20193;-79
2022/03/31 02:03:34;;;;;;;15.50;3.63;;;;;;;14.02;55.08;63451.34;5067640;28;20571;-78
2022/03/31 02:06:01;;;;;;;18.80;3.45;;;;;;;14.02;55.63;63446.22;5058393;28;20513;-78
2022/03/31 02:08:29;;;;;;;11.48;3.78;;;;;;;13.99;55.30;63438.53;5068715;28;20213;-78
2022/03/31 02:10:55;;;;;;;10.00;3.40;;;;;;;14.00;54.62;63444.16;5067273;28;20207;-78
2022/03/31 02:13:22;;;;;;;13.02;4.28;;;;;;;13.72;53.11;63411.00;5063467;28;20448;-77
2022/03/31 02:15:51;;;;;;;9.60;3.45;;;;;;;13.41;52.79;63380.88;5064263;28;20201;-77
2022/03/31 02:18:18;;;;;;;17.65;4.18;;;;;;;13.42;53.00;63387.56;5068055;28;20282;-78
2022/03/31 02:20:45;;;;;;;14.35;3.80;;;;;;;13.52;53.92;63392.31;5068712;28;20197;-78
2022/03/31 02:23:12;;;;;;;12.13;4.25;;;;;;;13.51;54.14;63396.91;5063658;28;20275;-78
2022/03/31 02:25:39;;;;;;;13.95;3.55;;;;;;;13.57;53.87;63402.59;5065977;28;20213;-77
2022/03/31 02:28:06;;;;;;;9.82;3.97;;;;;;;13.62;53.92;63402.69;5067488;28;20303;-76
2022/03/31 02:30:33;;;;;;;17.45;4.45;;;;;;;13.59;53.68;63400.09;5067488;28;20235;-77
2022/03/31 02:33:02;;;;;;;8.55;4.25;;;;;;;13.49;53.88;63391.75;5062443;28;20567;-77
2022/03/31 02:35:30;;;;;;;16.35;3.72;;;;;;;13.40;54.83;63379.84;5065659;28;20251;-77
2022/03/31 02:37:57;;;;;;;10.23;3.97;;;;;;;13.42;55.09;63387.56;5067552;28;20405;-78
2022/03/31 02:40:24;;;;;;;10.60;3.92;;;;;;;13.46;55.23;63388.63;5066798;28;20244;-76
2022/03/31 02:42:51;;;;;;;15.40;3.70;;;;;;;13.49;55.18;63386.63;5065488;28;20260;-77
2022/03/31 02:45:19;;;;;;;14.30;3.90;;;;;;;13.55;55.44;63392.84;5067212;28;20201;-77
2022/03/31 02:47:47;;;;;;;14.73;4.82;;;;;;;13.44;55.92;63381.44;5067303;28;20560;-78
2022/03/31 02:50:17;;;;;;;13.88;3.90;;;;;;;13.17;55.60;63359.06;5065097;28;20280;-78
2022/03/31 02:55:29;;;;;;;13.75;3.90;;;;;;;12.92;54.55;63330.56;5066195;28;20529;-78
2022/03/31 02:57:57;;;;;;;11.82;4.70;;;;;;;12.88;54.99;63323.31;5064275;28;20563;-78
2022/03/31 03:00:24;;;;;;;13.73;4.03;;;;;;;12.92;54.77;63337.69;5064232;28;20494;-78
2022/03/31 03:02:51;;;;;;;14.13;3.75;;;;;;;12.93;54.86;63331.06;5065908;28;20229;-77
2022/03/31 03:05:20;;;;;;;15.65;4.13;;;;;;;12.97;54.86;63335.75;5064788;28;20346;-77
2022/03/31 03:07:47;;;;;;;15.10;4.70;;;;;;;12.96;54.71;63331.63;5054908;28;20213;-79
2022/03/31 03:10:14;;;;;;;11.93;3.38;;;;;;;12.96;54.34;63334.69;5063773;28;20397;-77
2022/03/31 03:12:42;;;;;;;13.98;2.95;;;;;;;13.02;54.40;63345.53;5065525;28;20236;-77
2022/03/31 03:15:10;;;;;;;14.55;5.95;;;;;;;13.09;54.81;63350.25;5065337;28;20198;-78
2022/03/31 03:17:41;;;;;;;15.35;4.18;;;;;;;13.13;54.73;63351.84;5061659;28;20217;-77
2022/03/31 03:20:13;;;;;;;14.82;4.70;;;;;;;13.22;54.61;63363.75;5066175;28;20448;-78
2022/03/31 03:22:43;;;;;;;14.30;4.60;;;;;;;13.16;54.81;63352.91;5065796;28;20233;-78
2022/03/31 03:25:11;;;;;;;9.77;3.80;;;;;;;13.17;53.96;63350.88;5062368;28;20202;-77
2022/03/31 03:27:38;;;;;;;13.05;4.20;;;;;;;13.10;54.18;63351.78;5064257;28;20258;-78
2022/03/31 03:30:06;;;;;;;17.83;5.15;;;;;;;13.09;54.13;63343.09;5066595;28;20198;-79
2022/03/31 03:32:34;;;;;;;13.77;4.25;;;;;;;13.03;54.52;63338.91;5065378;28;20553;-77
2022/03/31 03:35:00;;;;;;;7.38;3.90;;;;;;;12.95;55.18;63331.13;5067825;28;20450;-78
2022/03/31 03:37:27;;;;;;;17.88;4.10;;;;;;;12.93;55.48;63329.03;5063349;28;20405;-78
2022/03/31 03:39:55;;;;;;;18.95;4.53;;;;;;;12.94;56.21;63332.13;5067543;28;20201;-77
2022/03/31 03:42:22;;;;;;;9.73;4.22;;;;;;;12.97;56.32;63332.66;5064823;28;20232;-78
2022/03/31 03:44:49;;;;;;;25.92;12.48;;;;;;;12.84;55.32;63324.31;5062989;28;20202;-78
2022/03/31 03:47:16;;;;;;;11.05;4.55;;;;;;;12.65;56.17;63305.63;5063914;28;20232;-78
2022/03/31 03:49:43;;;;;;;11.98;4.95;;;;;;;12.69;56.44;63309.25;5064738;28;20202;-77
2022/03/31 03:52:10;;;;;;;13.05;3.95;;;;;;;12.73;56.53;63310.84;5064363;28;20225;-78
2022/03/31 03:54:37;;;;;;;13.88;4.40;;;;;;;12.75;57.26;63316.00;5063266;28;20555;-78
2022/03/31 03:57:05;;;;;;;18.80;4.53;;;;;;;12.70;56.98;63310.81;5064819;28;20221;-79
2022/03/31 03:59:32;;;;;;;16.10;4.75;;;;;;;12.62;56.65;63296.88;5064865;28;20209;-77
2022/03/31 04:02:01;;;;;;;14.18;5.15;;;;;;;12.61;55.32;63301.47;5065567;28;20225;-78
2022/03/31 04:04:29;;;;;;;23.80;4.68;;;;;;;12.51;54.94;63288.56;5064049;28;20267;-79
2022/03/31 04:06:56;;;;;;;11.15;4.63;;;;;;;12.51;55.20;63282.94;5065051;28;20236;-77
2022/03/31 04:09:23;;;;;;;9.70;4.07;;;;;;;12.61;54.80;63301.47;5062060;28;20243;-78
2022/03/31 04:11:50;;;;;;;14.98;4.35;;;;;;;12.53;55.00;63293.19;5064544;28;20255;-78
2022/03/31 04:14:18;;;;;;;13.48;4.22;;;;;;;12.61;54.81;63298.41;5066158;28;20245;-77
2022/03/31 04:16:45;;;;;;;13.60;4.55;;;;;;;12.59;54.76;63301.44;5065756;28;20228;-78
2022/03/31 04:19:12;;;;;;;13.77;4.85;;;;;;;12.24;54.94;63262.59;5064145;28;20205;-78
2022/03/31 04:21:39;;;;;;;15.13;5.65;;;;;;;12.19;55.74;63263.03;5064321;28;20229;-78
2022/03/31 04:24:07;;;;;;;10.10;5.57;;;;;;;12.16;55.33;63254.84;5066718;28;20233;-77
2022/03/31 04:26:34;;;;;;;17.25;5.40;;;;;;;12.21;54.97;63265.13;5065629;28;20198;-78
2022/03/31 04:29:01;;;;;;;17.92;4.93;;;;;;;11.97;55.41;63232.59;5065026;28;20216;-77
2022/03/31 04:31:30;;;;;;;37.33;18.38;;;;;;;12.18;55.43;63254.34;5064668;28;20548;-77
2022/03/31 04:33:56;;;;;;;20.83;5.65;;;;;;;12.26;55.87;63262.13;5067607;28;20197;-77
2022/03/31 04:36:23;;;;;;;15.60;4.88;;;;;;;12.12;57.64;63248.13;5065650;28;20207;-76
2022/03/31 04:38:50;;;;;;;16.90;5.05;;;;;;;12.00;58.65;63232.63;5062685;28;20374;-78
2022/03/31 04:41:17;;;;;;;14.82;5.95;;;;;;;11.92;65.16;63229.97;5064901;28;20238;-77
2022/03/31 04:43:44;;;;;;;9.55;4.35;;;;;;;11.75;70.33;63209.28;5065483;28;20408;-78
2022/03/31 04:46:11;;;;;;;14.07;5.40;;;;;;;11.79;69.83;63215.97;5059067;28;20193;-78
2022/03/31 04:48:40;;;;;;;11.65;4.57;;;;;;;11.84;68.32;63218.59;5063670;28;20534;-78
2022/03/31 04:51:07;;;;;;;15.52;5.10;;;;;;;11.79;64.51;63213.41;5066247;28;20406;-78
2022/03/31 04:53:33;;;;;;;11.18;5.10;;;;;;;11.84;62.99;63221.66;5066513;28;20228;-78
2022/03/31 04:56:00;;;;;;;14.25;5.35;;;;;;;11.71;63.70;63208.19;5064199;28;20220;-79
2022/03/31 04:58:28;;;;;;;13.02;6.13;;;;;;;11.71;64.71;63207.69;5062942;28;20541;-77
2022/03/31 05:00:55;;;;;;;11.38;4.55;;;;;;;11.78;63.85;63215.44;5064716;28;20260;-77
2022/03/31 05:03:22;;;;;;;12.73;4.00;;;;;;;11.93;65.75;63231.00;5063079;28;20248;-78
2022/03/31 05:05:50;;;;;;;19.33;5.65;;;;;;;12.05;66.37;63245.97;5064242;28;20201;-77
2022/03/31 05:08:17;;;;;;;16.58;5.43;;;;;;;12.03;70.38;63240.84;5062965;28;20237;-77
2022/03/31 05:10:45;;;;;;;11.85;4.32;;;;;;;12.05;72.30;63240.88;5061647;28;20201;-77
2022/03/31 05:13:12;;;;;;;20.40;5.55;;;;;;;12.09;73.22;63247.59;5062352;28;20288;-77
2022/03/31 05:15:38;;;;;;;15.75;4.70;;;;;;;12.14;72.30;63250.22;5061938;28;20505;-76
2022/03/31 05:18:06;;;;;;;15.40;4.88;;;;;;;12.06;74.42;63238.84;5061040;28;20217;-77
2022/03/31 05:20:33;;;;;;;10.25;4.82;;;;;;;12.00;70.14;63233.16;5063190;28;20431;-77
2022/03/31 05:23:01;;;;;;;17.25;4.53;;;;;;;12.14;68.19;63247.13;5062454;28;20355;-76
2022/03/31 05:25:28;;;;;;;11.32;4.35;;;;;;;12.13;66.76;63248.66;5060367;28;20201;-77
2022/03/31 05:27:58;;;;;;;26.92;6.28;;;;;;;12.25;68.48;63264.16;5062954;28;20217;-76
2022/03/31 05:30:25;;;;;;;11.15;4.55;;;;;;;12.40;69.88;63277.16;5052248;28;20202;-78
2022/03/31 05:32:53;;;;;;;13.15;4.38;;;;;;;12.39;72.62;63275.59;5065131;28;20217;-78
2022/03/31 05:35:21;;;;;;;14.63;4.95;;;;;;;12.42;75.99;63276.69;5061494;28;20412;-78
2022/03/31 05:37:49;;;;;;;17.95;4.95;;;;;;;12.57;77.89;63297.34;5060439;28;20220;-79
2022/03/31 05:40:18;;;;;;;17.85;6.43;;;;;;;12.67;81.15;63307.69;5062728;28;20215;-78
2022/03/31 05:42:45;;;;;;;25.35;6.53;;;;;;;12.69;84.05;63307.22;5065081;28;20282;-78
2022/03/31 05:45:13;;;;;;;26.17;10.88;;;;;;;12.74;82.13;63314.97;5061634;28;20449;-79
2022/03/31 05:47:41;;;;;;;17.27;7.63;;;;;;;12.90;85.25;63333.59;5064608;28;20221;-78
2022/03/31 05:50:09;;;;;;;21.10;6.20;;;;;;;12.68;82.47;63303.63;5064758;28;20208;-78
2022/03/31 05:52:38;;;;;;;10.80;3.72;;;;;;;12.64;80.55;63304.06;5060689;28;20221;-78
2022/03/31 05:55:06;;;;;;;16.98;5.00;;;;;;;12.56;82.31;63296.28;5060885;28;20201;-79
2022/03/31 05:57:35;;;;;;;23.10;5.18;;;;;;;12.73;83.83;63313.91;5066246;28;20221;-79
2022/03/31 06:00:03;;;;;;;20.23;5.28;;;;;;;12.80;85.83;63320.66;5067784;28;20505;-79
2022/03/31 06:02:30;;;;;;;17.33;5.40;;;;;;;12.99;84.88;63337.31;5062394;28;20233;-78
2022/03/31 06:04:57;;;;;;;19.92;7.28;;;;;;;13.05;82.69;63340.97;5065414;28;20463;-78
2022/03/31 06:07:24;;;;;;;24.10;10.52;;;;;;;13.08;78.57;63347.16;5063635;28;20252;-78
2022/03/31 06:09:51;;;;;;;20.63;7.75;;;;;;;13.13;81.49;63351.84;5066994;28;20216;-78
2022/03/31 06:12:17;;;;;;;18.13;6.82;;;;;;;13.23;78.92;63364.78;5058169;28;20261;-79
2022/03/31 06:14:46;;;;;;;25.80;8.32;;;;;;;13.27;76.96;63366.38;5066669;28;20403;-76
2022/03/31 06:17:13;;;;;;;19.45;7.88;;;;;;;13.45;76.32;63383.00;5064873;28;20221;-77
2022/03/31 06:19:40;;;;;;;18.92;4.88;;;;;;;13.69;72.84;63409.94;5073647;28;20193;-78
2022/03/31 06:22:07;;;;;;;17.50;5.00;;;;;;;13.70;76.33;63408.44;5064422;28;20217;-77
2022/03/31 06:24:34;;;;;;;26.77;5.03;;;;;;;13.72;75.13;63413.56;5061955;28;20248;-78
2022/03/31 06:27:01;;;;;;;20.40;6.38;;;;;;;13.79;71.52;63420.31;5064230;28;20217;-79
2022/03/31 06:29:28;;;;;;;30.33;6.93;;;;;;;13.83;74.04;63424.47;5060970;28;20209;-78
2022/03/31 06:31:56;;;;;;;13.48;4.90;;;;;;;13.67;78.67;63407.88;5062933;28;20240;-78
2022/03/31 06:34:23;;;;;;;18.15;4.60;;;;;;;13.89;76.60;63433.28;5066069;28;20251;-78
2022/03/31 06:36:51;;;;;;;17.02;4.95;;;;;;;13.94;72.38;63438.97;5052469;28;20218;-79
2022/03/31 06:39:17;;;;;;;18.42;6.07;;;;;;;14.07;71.29;63448.88;5060660;28;20438;-78
2022/03/31 06:41:44;;;;;;;18.67;4.88;;;;;;;14.17;68.45;63462.31;5061850;28;20221;-77
2022/03/31 06:44:13;;;;;;;26.88;5.85;;;;;;;14.23;71.04;63463.44;5064455;28;20233;-79
2022/03/31 06:46:40;;;;;;;22.48;3.88;;;;;;;14.38;67.68;63478.50;5048945;28;20202;-78
2022/03/31 06:49:09;;;;;;;18.90;4.85;;;;;;;14.53;65.76;63494.59;5049890;28;20314;-79
2022/03/31 06:51:36;;;;;;;18.05;4.70;;;;;;;14.64;65.15;63508.06;5051498;28;20394;-79
2022/03/31 06:54:03;;;;;;;19.95;3.95;;;;;;;14.60;65.59;63506.50;5049845;28;20194;-79
2022/03/31 06:56:31;;;;;;;14.20;4.18;;;;;;;14.83;64.23;63525.25;5050858;28;20222;-79
2022/03/31 06:59:00;;;;;;;13.15;3.50;;;;;;;14.86;63.33;63528.88;5052162;28;20201;-81
2022/03/31 07:01:27;;;;;;;14.60;4.00;;;;;;;15.13;61.05;63559.00;5070980;28;20209;-81
2022/03/31 07:03:54;;;;;;;16.92;4.38;;;;;;;14.89;62.16;63537.13;5070791;28;20548;-81
2022/03/31 07:06:23;;;;;;;12.43;3.67;;;;;;;15.02;61.19;63545.50;5064040;28;20244;-78
2022/03/31 07:08:50;;;;;;;23.90;4.05;;;;;;;15.03;61.94;63551.16;5049537;28;20198;-80
2022/03/31 07:11:18;;;;;;;16.23;4.32;;;;;;;15.04;59.98;63549.63;5062285;28;20510;-81
2022/03/31 07:13:46;;;;;;;16.73;4.50;;;;;;;15.03;60.57;63551.69;5069284;28;20221;-81
2022/03/31 07:16:14;;;;;;;22.02;5.00;;;;;;;15.17;60.46;63563.13;5068010;28;20224;-81
2022/03/31 07:18:40;;;;;;;23.77;4.68;;;;;;;15.08;61.10;63556.88;5069364;28;20217;-80
2022/03/31 07:21:07;;;;;;;19.02;4.18;;;;;;;15.16;59.32;63567.22;5068727;28;20194;-80
2022/03/31 07:23:35;;;;;;;21.08;4.47;;;;;;;15.21;58.58;63572.44;5069036;28;20224;-81
2022/03/31 07:26:04;;;;;;;24.75;5.55;;;;;;;15.40;58.01;63589.09;5068022;28;20563;-81
2022/03/31 07:28:31;;;;;;;20.05;5.45;;;;;;;15.39;56.84;63585.50;5065134;28;20421;-79
2022/03/31 07:30:58;;;;;;;21.70;5.03;;;;;;;15.42;57.63;63588.63;5067503;28;20200;-82
2022/03/31 07:33:25;;;;;;;19.40;4.20;;;;;;;15.58;57.54;63607.81;5067705;28;20225;-81
2022/03/31 07:35:52;;;;;;;18.13;4.75;;;;;;;15.76;56.45;63623.97;5064806;28;20296;-82
2022/03/31 07:38:19;;;;;;;17.10;5.05;;;;;;;15.76;55.77;63629.09;5066018;28;20276;-80
2022/03/31 07:40:49;;;;;;;27.75;4.50;;;;;;;15.83;55.77;63631.78;5068179;28;20197;-81
2022/03/31 07:43:16;;;;;;;19.60;4.18;;;;;;;15.94;55.05;63642.69;5065677;28;20240;-81
2022/03/31 07:45:43;;;;;;;12.18;3.70;;;;;;;15.77;55.63;63622.94;5063992;28;20422;-81
2022/03/31 07:48:15;;;;;;;23.65;4.80;;;;;;;15.77;55.58;63619.88;5065385;28;20225;-80
2022/03/31 07:50:42;;;;;;;14.73;4.82;;;;;;;15.65;55.71;63609.97;5070545;28;20192;-82
2022/03/31 07:53:10;;;;;;;17.27;4.10;;;;;;;15.92;55.41;63640.59;5066429;28;20236;-81
2022/03/31 07:55:38;;;;;;;23.50;5.05;;;;;;;15.85;55.30;63635.88;5070028;28;20196;-82
2022/03/31 07:58:06;;;;;;;18.92;5.75;;;;;;;15.91;54.39;63639.56;5066915;28;20209;-79
2022/03/31 08:00:33;;;;;;;20.90;4.50;;;;;;;15.93;54.65;63639.59;5066119;28;20209;-80
2022/03/31 08:03:01;;;;;;;20.25;4.60;;;;;;;16.04;54.95;63653.09;5068272;28;20427;-81
2022/03/31 08:05:29;;;;;;;19.25;5.75;;;;;;;16.20;54.75;63669.72;5070977;28;20220;-80
2022/03/31 08:07:56;;;;;;;20.70;4.93;;;;;;;16.38;53.12;63695.63;5071220;28;20236;-79
2022/03/31 08:10:24;;;;;;;14.20;4.50;;;;;;;16.46;54.55;63696.78;5070562;28;20204;-79
2022/03/31 08:12:51;;;;;;;15.20;3.78;;;;;;;16.79;52.43;63730.59;5072470;28;20224;-80
2022/03/31 08:15:20;;;;;;;15.13;4.80;;;;;;;16.72;51.84;63723.31;5073123;28;20213;-79
2022/03/31 08:17:48;;;;;;;20.27;3.88;;;;;;;16.76;51.55;63730.03;5072280;28;20212;-78
2022/03/31 08:20:16;;;;;;;18.50;4.55;;;;;;;16.85;51.31;63736.84;5071588;28;20220;-80
2022/03/31 08:22:43;;;;;;;19.52;4.65;;;;;;;16.99;51.41;63753.97;5070054;28;20266;-79
2022/03/31 08:25:11;;;;;;;24.48;4.88;;;;;;;16.94;52.23;63746.75;5066805;28;20224;-79
2022/03/31 08:27:39;;;;;;;15.70;4.32;;;;;;;17.23;50.74;63776.91;5068725;28;20271;-80
2022/03/31 08:30:09;;;;;;;17.50;4.10;;;;;;;16.79;51.43;63728.03;5070847;28;20270;-78
2022/03/31 08:32:39;;;;;;;21.02;5.13;;;;;;;16.76;51.48;63722.31;5051992;28;20252;-80
2022/03/31 08:35:08;;;;;;;16.88;4.70;;;;;;;17.01;51.59;63754.03;5068403;28;20377;-80
2022/03/31 08:37:35;;;;;;;15.40;5.40;;;;;;;17.29;50.90;63782.66;5070246;28;20238;-80
2022/03/31 08:40:03;;;;;;;21.83;4.60;;;;;;;17.65;48.21;63822.19;5070677;28;20432;-80
2022/03/31 08:42:30;;;;;;;19.15;4.53;;;;;;;17.77;49.15;63826.97;5061808;28;20225;-80
2022/03/31 08:44:58;;;;;;;18.50;5.00;;;;;;;17.94;49.20;63852.94;5058705;28;20231;-81
2022/03/31 08:47:26;;;;;;;23.92;4.80;;;;;;;18.07;48.01;63866.47;5070652;28;20228;-80
2022/03/31 08:49:55;;;;;;;28.20;4.80;;;;;;;18.23;47.47;63882.59;5070547;28;20216;-79
2022/03/31 08:52:23;;;;;;;22.58;5.40;;;;;;;18.26;48.23;63883.16;5070860;28;20220;-81
2022/03/31 08:54:51;;;;;;;13.73;4.38;;;;;;;18.14;48.01;63871.16;5072759;28;20243;-80
2022/03/31 08:57:19;;;;;;;19.50;4.95;;;;;;;17.37;48.72;63793.53;5072109;28;20297;-80
2022/03/31 08:59:46;;;;;;;18.48;3.53;;;;;;;17.74;47.88;63829.50;5072690;28;20205;-81
2022/03/31 09:02:23;;;;;;;20.98;5.28;;;;;;;17.96;47.68;63857.59;5071422;28;20220;-80
2022/03/31 09:05:01;;;;;;;10.93;4.07;;;;;;;18.10;47.59;63869.06;5071142;28;20285;-81
2022/03/31 09:07:29;;;;;;;15.55;4.40;;;;;;;18.23;46.84;63885.72;5068429;28;20231;-82
2022/03/31 09:09:55;;;;;;;23.35;4.15;;;;;;;18.28;46.49;63887.81;5070204;28;20193;-80
2022/03/31 09:12:26;;;;;;;18.80;4.15;;;;;;;18.58;46.28;63918.56;5071230;28;20272;-81
2022/03/31 09:14:54;;;;;;;20.67;4.40;;;;;;;18.11;47.44;63868.06;5069928;28;20193;-82
2022/03/31 09:17:21;;;;;;;13.52;3.63;;;;;;;18.03;47.80;63859.72;5069908;28;20283;-81
2022/03/31 09:19:47;;;;;;;10.50;3.92;;;;;;;18.36;47.39;63896.16;5069040;28;20201;-79
2022/03/31 09:22:16;;;;;;;14.00;4.15;;;;;;;18.21;46.81;63883.09;5070141;28;20266;-79
2022/03/31 09:24:42;;;;;;;12.65;3.65;;;;;;;18.09;46.87;63865.97;5073646;28;20441;-79
2022/03/31 09:27:09;;;;;;;16.35;3.97;;;;;;;18.08;47.51;63867.50;5072493;28;20216;-82
2022/03/31 09:29:36;;;;;;;17.98;4.60;;;;;;;18.08;48.49;63867.50;5070495;28;20197;-79
2022/03/31 09:32:08;;;;;;;14.85;4.00;;;;;;;18.35;46.94;63895.09;5070135;28;20217;-80
2022/03/31 09:34:40;;;;;;;12.07;2.92;;;;;;;18.13;47.58;63872.19;5070510;28;20551;-78
2022/03/31 09:37:07;;;;;;;13.20;4.28;;;;;;;18.41;47.77;63899.31;5065770;28;20212;-81
2022/03/31 09:39:36;;;;;;;20.75;3.78;;;;;;;18.46;47.38;63906.06;5070212;28;20193;-80
2022/03/31 09:42:10;;;;;;;18.00;4.18;;;;;;;18.85;47.60;63942.06;5066874;28;20545;-81
2022/03/31 09:44:37;;;;;;;17.45;3.15;;;;;;;18.51;47.71;63914.38;5063306;28;20519;-80
2022/03/31 09:47:04;;;;;;;14.80;3.15;;;;;;;18.70;47.84;63933.66;5066084;28;20255;-80
2022/03/31 09:49:30;;;;;;;6.97;3.10;;;;;;;18.79;46.84;63937.88;5062694;28;20200;-80
2022/03/31 09:51:59;;;;;;;13.70;2.95;;;;;;;18.84;46.84;63948.25;5065868;28;20541;-80
2022/03/31 09:54:29;;;;;;;18.52;3.13;;;;;;;18.89;46.45;63946.25;5064575;28;20223;-78
2022/03/31 09:56:59;;;;;;;13.27;4.13;;;;;;;19.03;46.05;63968.59;5069373;28;20617;-80
2022/03/31 09:59:32;;;;;;;22.63;4.25;;;;;;;19.10;45.49;63968.13;5069554;28;20200;-81
2022/03/31 10:01:58;;;;;;;14.68;3.38;;;;;;;19.20;45.30;63985.78;5068534;28;20299;-79
2022/03/31 10:04:26;;;;;;;16.70;4.15;;;;;;;19.25;45.33;63983.25;5069336;28;20228;-79
2022/03/31 10:06:53;;;;;;;20.27;4.15;;;;;;;19.28;45.27;63992.06;5069682;28;20606;-80
2022/03/31 10:09:22;;;;;;;15.63;3.63;;;;;;;19.34;44.70;63997.81;5049769;28;20213;-81
2022/03/31 10:11:56;;;;;;;16.08;3.67;;;;;;;19.15;45.14;63978.00;5067840;28;20272;-80
2022/03/31 10:14:33;;;;;;;12.70;3.40;;;;;;;19.11;45.42;63974.34;5069774;28;20185;-81
2022/03/31 10:17:03;;;;;;;24.10;3.80;;;;;;;18.91;45.69;63953.50;5067763;28;20255;-80
2022/03/31 10:19:31;;;;;;;18.25;4.25;;;;;;;18.72;46.62;63930.59;5067528;28;20208;-80
2022/03/31 10:22:02;;;;;;;21.98;3.75;;;;;;;19.02;45.85;63959.25;5071263;28;20572;-80
2022/03/31 10:24:45;;;;;;;17.75;3.92;;;;;;;19.08;46.31;63973.81;5073708;28;20238;-79
2022/03/31 10:27:25;;;;;;;11.90;3.60;;;;;;;19.31;45.87;63994.69;5072560;28;20288;-80
2022/03/31 10:29:53;;;;;;;20.77;4.22;;;;;;;19.80;44.22;64045.28;5073893;28;20203;-82
2022/03/31 10:32:22;;;;;;;19.52;4.93;;;;;;;19.62;45.16;64023.91;5073409;28;20217;-80
2022/03/31 10:34:51;;;;;;;9.98;3.38;;;;;;;20.20;43.60;64087.56;5074681;28;20212;-80
2022/03/31 10:37:32;;;;;;;19.25;4.63;;;;;;;20.67;42.63;64134.00;5076385;28;20240;-80
2022/03/31 10:40:00;;;;;;;18.85;4.25;;;;;;;20.51;42.63;64116.78;5076712;28;20252;-80
2022/03/31 10:42:26;;;;;;;14.27;3.67;;;;;;;20.94;42.12;64161.69;5076135;28;20281;-81
2022/03/31 10:45:12;;;;;;;22.30;4.30;;;;;;;20.66;42.22;64135.03;5071828;28;20514;-80
2022/03/31 10:47:41;;;;;;;19.75;4.10;;;;;;;20.37;42.64;64100.13;5073276;28;20232;-80
2022/03/31 10:50:09;;;;;;;13.18;3.78;;;;;;;20.65;42.07;64134.53;5073229;28;20192;-79
2022/03/31 10:52:37;;;;;;;16.05;3.63;;;;;;;20.24;43.03;64089.13;5072579;28;20235;-81
2022/03/31 10:55:09;;;;;;;18.10;3.95;;;;;;;19.66;44.08;64028.09;5053799;28;20217;-79
2022/03/31 10:57:41;;;;;;;20.77;4.28;;;;;;;20.09;42.91;64073.47;5053468;28;20240;-80
2022/03/31 11:00:11;;;;;;;18.23;4.53;;;;;;;20.20;43.31;64087.56;5060546;28;20227;-80
2022/03/31 11:02:43;;;;;;;17.20;4.68;;;;;;;20.67;42.73;64136.59;5072701;28;20220;-80
2022/03/31 11:05:10;;;;;;;17.33;4.82;;;;;;;20.29;43.29;64091.25;5073261;28;20260;-80
2022/03/31 11:07:37;;;;;;;17.90;4.25;;;;;;;20.43;42.51;64108.44;5073155;28;20217;-80
2022/03/31 11:10:07;;;;;;;17.00;4.20;;;;;;;20.44;43.40;64112.06;5071069;28;20220;-80
2022/03/31 11:12:35;;;;;;;14.00;4.18;;;;;;;20.64;42.69;64132.94;5072293;28;20216;-82
2022/03/31 11:15:07;;;;;;;14.82;3.85;;;;;;;20.55;42.58;64123.56;5072766;28;20196;-80
2022/03/31 11:17:36;;;;;;;12.20;4.47;;;;;;;20.43;43.27;64105.88;5067306;28;20272;-81
2022/03/31 11:20:16;;;;;;;12.63;3.90;;;;;;;20.47;42.68;64118.31;5072450;28;20209;-80
2022/03/31 11:22:48;;;;;;;26.30;4.65;;;;;;;20.57;42.76;64128.75;5073674;28;20217;-80
2022/03/31 11:25:16;;;;;;;16.65;3.15;;;;;;;20.64;42.12;64132.94;5073867;28;20219;-79
2022/03/31 11:27:44;;;;;;;20.92;5.05;;;;;;;20.03;43.12;64066.69;5072295;28;20221;-83
2022/03/31 11:30:13;;;;;;;19.90;5.43;;;;;;;19.61;44.03;64023.41;5073075;28;20204;-81
2022/03/31 11:32:43;;;;;;;15.10;4.07;;;;;;;19.80;43.90;64045.28;5070170;28;20212;-84